• Join FlightAware (Why Join?)
  • Login
  • US Flag 
07:45AM EST


 

Airport Tracker/Info


-or-


 

Live Flight TrackerFlight Track Log ✈ UAL594 ✈ 10-Apr-2013 ✈ KORD - KDEN

Flight Track Log - Related Links

Times and Time Zones

All times are in EDT time to prevent confusion due to time zone crossing. See the UAL594 flight status page for this flight to view local times or setup timezone preferences in your user account.

Time Position Orientation Groundspeed Altitude Reporting Facility
EDT Latitude Longitude Course Direction KTS MPH feet Rate Location/Type
09:52AM 42.0000 -87.9500 261° West 171 197 2,000  Level Chicago TRACON
09:53AM 42.0500 -87.9833 334° Northwest 226 260 4,300 2,640 Climbing Chicago TRACON
09:55AM 41.9333 -88.3046 270° West  Level FlightAware Approximate
09:56AM 41.9167 -88.4396 270° West  Level FlightAware Approximate
09:56AM 42.0783 -88.1936 280° West 258 297 10,900  Level Chicago Center
09:57AM 41.9039 -88.5762 261° West  Level FlightAware Approximate
09:57AM 42.0647 -88.3036 261° West 304 350 13,500  Level Chicago Center
09:58AM 42.0183 -88.4022 238° Southwest 314 361 16,300 2,520 Climbing Chicago Center
09:59AM 41.9719 -88.5053 239° Southwest 323 372 18,700 2,400 Climbing Chicago Center
10:00AM 41.9281 -88.6450 247° West 341 392 21,300 2,160 Climbing Chicago Center
10:01AM 41.9075 -88.7750 258° West 356 410 23,200 1,800 Climbing Chicago Center
10:02AM 41.8858 -88.9092 258° West 368 423 25,000 1,560 Climbing Chicago Center
10:03AM 41.8756 -89.0486 264° West 379 436 26,500 1,200 Climbing Chicago Center
10:04AM 41.8681 -89.1939 266° West 389 448 27,500 1,080 Climbing Chicago Center
10:05AM 41.8628 -89.3475 267° West 411 473 28,800 1,140 Climbing Chicago Center
10:06AM 41.8547 -89.5003 266° West 416 479 29,900 1,500 Climbing Chicago Center
10:07AM 41.8453 -89.6847 266° West 415 478 31,900 1,560 Climbing Chicago Center
10:08AM 41.8369 -89.8386 266° West 414 476 33,200 1,320 Climbing Chicago Center
10:09AM 41.8308 -90.0031 267° West 417 480 34,700 1,320 Climbing Chicago Center
10:10AM 41.8225 -90.1544 266° West 411 473 36,000 600 Climbing Chicago Center
10:11AM 41.8144 -90.3058 266° West 410 472 36,000  Level Chicago Center
10:12AM 41.8056 -90.4572 266° West 411 473 36,000  Level Chicago Center
10:13AM 41.7967 -90.6058 265° West 405 466 36,000  Level Chicago Center
10:14AM 41.7864 -90.7581 265° West 409 471 36,000  Level Chicago Center
10:15AM 41.7772 -90.9061 265° West 405 466 36,000  Level Chicago Center
10:16AM 41.7661 -91.0828 265° West 401 461 36,000  Level Chicago Center
10:17AM 41.7558 -91.2314 265° West 403 464 36,000  Level Chicago Center
10:18AM 41.7467 -91.3792 265° West 402 463 36,000  Level Chicago Center
10:19AM 41.7369 -91.5289 265° West 403 464 36,000  Level Chicago Center
10:20AM 41.7261 -91.6794 265° West 407 468 36,000  Level Chicago Center
10:21AM 41.7158 -91.8292 265° West 405 466 36,000  Level Chicago Center
10:22AM 41.7050 -91.9808 265° West 409 471 36,000  Level Chicago Center
10:23AM 41.6914 -92.1642 264° West 413 475 36,000  Level Chicago Center
10:24AM 41.6800 -92.3150 264° West 410 472 36,000  Level Chicago Center
10:25AM 41.6678 -92.4661 264° West 413 475 36,000  Level Chicago Center
10:26AM 41.6572 -92.6183 265° West 414 476 36,000  Level Chicago Center
10:27AM 41.6486 -92.7164 263° West 414 476 36,000  Level Minneapolis Center
10:28AM 41.6367 -92.8689 264° West 415 478 36,000  Level Minneapolis Center
10:29AM 41.6214 -93.0508 264° West 415 478 36,000  Level Minneapolis Center
10:30AM 41.6097 -93.2003 264° West 411 473 36,000 -60 Level Minneapolis Center
10:31AM 41.5964 -93.3481 263° West 407 468 35,900 -300 Descending Minneapolis Center
10:32AM 41.5836 -93.4983 264° West 408 470 35,400 -1,020 Descending Minneapolis Center
10:33AM 41.5725 -93.6422 264° West 402 463 33,900 -1,620 Descending Minneapolis Center
10:34AM 41.5597 -93.7992 264° West 421 484 32,100 -960 Descending Minneapolis Center
10:35AM 41.5403 -93.9956 263° West 443 510 32,000 -60 Descending Minneapolis Center
10:36AM 41.5258 -94.1531 263° West 436 502 32,000  Level Minneapolis Center
10:37AM 41.5089 -94.3111 262° West 435 501 32,000  Level Minneapolis Center
10:38AM 41.4931 -94.4700 262° West 433 498 32,000  Level Minneapolis Center
10:39AM 41.4806 -94.6300 264° West 433 498 32,000  Level Minneapolis Center
10:40AM 41.4667 -94.7914 264° West 436 502 32,000  Level Minneapolis Center
10:41AM 41.4467 -94.9819 262° West 435 501 32,000  Level Minneapolis Center
10:42AM 41.4308 -95.1397 262° West 431 496 32,000  Level Minneapolis Center
10:43AM 41.4144 -95.2969 262° West 430 495 32,000  Level Minneapolis Center
10:45AM 41.3955 -95.4525 261° West  Level FlightAware Approximate
10:45AM 41.3822 -95.6092 261° West 427 491 32,000  Level Minneapolis Center
10:47AM 41.3661 -95.7794 263° West 430 495 32,000  Level Minneapolis Center
10:48AM 41.3497 -95.9364 262° West 429 494 32,000  Level Minneapolis Center
10:49AM 41.3347 -96.0628 261° West 430 495 32,000  Level Minneapolis Center
10:50AM 41.3139 -96.2525 262° West 431 496 32,000  Level Minneapolis Center
10:51AM 41.2961 -96.4122 262° West 430 495 32,000  Level Minneapolis Center
10:52AM 41.2772 -96.5700 261° West 431 496 32,000  Level Minneapolis Center
10:53AM 41.2594 -96.7275 262° West 431 496 32,000  Level Minneapolis Center
10:54AM 41.2369 -96.9167 261° West 432 497 32,000  Level Minneapolis Center
10:55AM 41.2186 -97.0742 261° West 432 497 32,000  Level Minneapolis Center
10:56AM 41.2003 -97.2319 261° West 433 498 32,000  Level Minneapolis Center
10:57AM 41.1814 -97.3900 261° West 434 499 32,000  Level Minneapolis Center
10:58AM 41.1622 -97.5481 261° West 434 499 32,000  Level Minneapolis Center
10:59AM 41.1431 -97.7075 261° West 435 501 32,000  Level Minneapolis Center
11:00AM 41.1228 -97.8642 260° West 434 499 32,000  Level Minneapolis Center
11:01AM 41.0989 -98.0519 260° West 432 497 32,000  Level Minneapolis Center
11:02AM 41.0794 -98.2081 261° West 430 495 32,000  Level Minneapolis Center
11:03AM 41.0597 -98.3642 261° West 429 494 32,000  Level Minneapolis Center
11:04AM 41.0433 -98.5186 262° West 428 493 32,000  Level Minneapolis Center
11:05AM 41.0272 -98.6753 262° West 430 495 32,000  Level Minneapolis Center
11:06AM 41.0081 -98.8308 261° West 430 495 32,000  Level Minneapolis Center
11:07AM 40.9908 -98.9881 262° West 431 496 32,000  Level Minneapolis Center
11:08AM 40.9750 -99.1281 262° West 431 496 32,000  Level Denver Center
11:09AM 40.9522 -99.3169 261° West 431 496 32,000  Level Denver Center
11:10AM 40.9339 -99.4747 261° West 432 497 32,000  Level Denver Center
11:11AM 40.9189 -99.6008 261° West 433 498 32,000  Level Denver Center
11:12AM 40.8961 -99.7903 261° West 435 501 32,000  Level Denver Center
11:13AM 40.8753 -99.9600 261° West 434 499 32,000  Level Denver Center
11:14AM 40.8561 -100.1119 261° West 437 503 32,000  Level Denver Center
11:15AM 40.8333 -100.2881 260° West 436 502 32,000  Level Denver Center
11:16AM 40.8150 -100.4392 261° West 435 501 32,000  Level Denver Center
11:17AM 40.7961 -100.5908 261° West 435 501 32,000  Level Denver Center
11:18AM 40.7692 -100.7650 259° West 430 495 32,000  Level Denver Center
11:19AM 40.7903 -100.9269 280° West 461 531 32,000  Level Denver Center
11:20AM 40.8661 -101.0714 305° West 494 568 32,000  Level Denver Center
11:21AM 40.8811 -101.2531 276° West 446 513 32,000  Level Denver Center
11:22AM 40.8472 -101.3958 253° West 426 490 32,000  Level Denver Center
11:23AM 40.8053 -101.5608 251° West 426 490 32,000  Level Denver Center
11:25AM 40.7706 -101.7025 252° West 425 489 32,000  Level Denver Center
11:26AM 40.7236 -101.8864 251° West 415 478 32,000  Level Denver Center
11:27AM 40.6886 -102.0228 251° West 410 472 32,000  Level Denver Center
11:28AM 40.6458 -102.1844 251° West 420 483 32,000  Level Denver Center
11:29AM 40.6089 -102.3244 251° West 422 486 32,000  Level Denver Center
11:30AM 40.5669 -102.4892 252° West 426 490 32,000  Level Denver Center
11:31AM 40.5303 -102.6283 251° West 422 486 32,000  Level Denver Center
11:32AM 40.4869 -102.7933 251° West 426 490 32,000 -300 Level Denver Center
11:33AM 40.4478 -102.9403 251° West 424 488 31,500 -1,320 Descending Denver Center
11:34AM 40.4081 -103.0867 250° West 424 488 29,300 -2,160 Descending Denver Center
11:35AM 40.3706 -103.2314 251° West 419 482 27,100 -2,100 Descending Denver Center
11:36AM 40.3311 -103.3700 250° West 405 466 25,100 -1,800 Descending Denver Center
11:37AM 40.3014 -103.4833 251° West 396 456 23,400 -1,980 Descending Denver Center
11:38AM 40.2597 -103.6350 250° West 381 438 21,100 -2,160 Descending Denver Center
11:39AM 40.2228 -103.7719 251° West 359 413 19,000 -1,500 Descending Denver Center
11:40AM 40.2017 -103.8836 256° West 308 354 18,100 -1,260 Descending Denver Center
11:41AM 40.2139 -104.0022 278° West 305 351 16,500 -1,680 Descending Denver Center
11:42AM 40.2236 -104.1097 277° West 300 345 14,700 -1,740 Descending Denver Center
11:43AM 40.2347 -104.2258 277° West 299 344 13,000 -1,500 Descending Denver Center
11:44AM 40.2219 -104.3247 260° West 289 333 11,700 -1,380 Descending Denver Center
11:45AM 40.1892 -104.4278 247° West 287 330 10,200 -1,320 Descending Denver Center
11:46AM 40.1569 -104.5192 245° Southwest 279 321 9,000 -900 Descending Denver Center
11:48AM 40.0833 -104.6000 220° Southwest 291 335 8,200 -660 Descending Denver TRACON
11:49AM 40.0167 -104.6500 210° Southwest 237 273 7,600 -600 Descending Denver TRACON
11:49AM 40.0147 -104.6564 248° West 257 296 7,500 -900 Descending Denver Center
11:50AM 39.9586 -104.6861 202° Southwest 172 198 6,500 -1,020 Descending Denver Center